Time;durP1;ratioP1;P1;durP2;ratioP2;P2;SDS_P1;SDS_P2;PMS_P1;PMS_P2;Temp;Humidity;BMP_temperature;BMP_pressure;BME280_temperature;BME280_humidity;BME280_pressure;Samples;Min_cycle;Max_cycle;Signal;HPM_P1;HPM_P2
2023/01/05 00:01:45;;;;;;;;;4.25;4.25;;;;;11.93;66.76;101967.00;5061667;28;45549;-79
2023/01/05 00:04:12;;;;;;;;;6.00;4.00;;;;;11.82;67.04;101943.75;5056657;28;45728;-75
2023/01/05 00:06:38;;;;;;;;;3.25;3.00;;;;;11.92;67.66;101961.72;5056265;28;45580;-69
2023/01/05 00:09:05;;;;;;;;;5.25;3.25;;;;;11.88;67.26;101958.00;5056675;28;45566;-66
2023/01/05 00:22:48;;;;;;;;;8.50;8.25;;;;;11.91;66.69;101952.94;5053270;28;45398;-72
2023/01/05 00:25:17;;;;;;;;;6.25;6.00;;;;;11.84;66.91;101929.88;5055193;28;45290;-73
2023/01/05 00:27:46;;;;;;;;;4.75;4.50;;;;;11.88;67.23;101942.28;5059953;28;45349;-71
2023/01/05 00:30:15;;;;;;;;;5.00;4.00;;;;;11.87;67.28;101948.34;5058096;28;45419;-78
2023/01/05 00:32:42;;;;;;;;;4.75;3.75;;;;;11.79;67.46;101939.22;5048739;28;45331;-78
2023/01/05 00:35:10;;;;;;;;;5.00;4.25;;;;;11.67;67.75;101934.31;5056697;28;46143;-80
2023/01/05 00:37:37;;;;;;;;;5.00;4.00;;;;;11.64;67.78;101922.78;5045978;28;45606;-67
2023/01/05 00:40:09;;;;;;;;;8.25;7.00;;;;;11.69;67.96;101931.78;5055825;28;45626;-79
2023/01/05 00:42:34;;;;;;;;;2.00;1.50;;;;;11.69;67.41;101924.81;5054697;28;45305;-81
2023/01/05 00:45:01;;;;;;;;;4.25;3.25;;;;;11.66;67.81;101919.44;5048303;28;45665;-79
2023/01/05 00:47:27;;;;;;;;;4.00;3.75;;;;;11.65;67.82;101919.38;5052461;28;45490;-67
2023/01/05 00:49:53;;;;;;;;;6.50;5.25;;;;;11.68;67.73;101920.41;5047901;28;45305;-81
2023/01/05 00:52:20;;;;;;;;;5.00;5.00;;;;;11.69;67.63;101922.19;5048028;28;45513;-69
2023/01/05 00:54:45;;;;;;;;;6.75;6.00;;;;;11.72;67.60;101919.72;5058181;28;45417;-72
2023/01/05 00:57:13;;;;;;;;;7.00;6.00;;;;;11.54;67.18;101892.69;5043822;28;45341;-81
2023/01/05 00:59:39;;;;;;;;;6.00;5.25;;;;;11.72;67.51;101918.84;5048863;28;45507;-69
2023/01/05 01:02:05;;;;;;;;;5.00;5.00;;;;;11.68;67.48;101912.56;5058204;28;45398;-80
2023/01/05 01:04:33;;;;;;;;;2.00;2.00;;;;;11.58;67.63;101884.16;5050784;28;45550;-79
2023/01/05 01:07:01;;;;;;;;;3.25;3.25;;;;;11.77;67.46;101911.19;5054831;28;45660;-80
2023/01/05 01:09:28;;;;;;;;;1.00;1.00;;;;;11.70;67.38;101886.47;5056616;28;45459;-79
2023/01/05 01:11:54;;;;;;;;;2.00;1.00;;;;;11.81;67.01;101907.91;5051176;28;45398;-68
2023/01/05 01:14:20;;;;;;;;;1.25;1.00;;;;;11.84;67.55;101908.06;5050383;28;45514;-80
2023/01/05 01:16:45;;;;;;;;;1.50;1.00;;;;;11.83;67.52;101901.00;5057167;28;45642;-77
2023/01/05 01:19:14;;;;;;;;;1.00;1.00;;;;;11.84;67.82;101897.56;5056875;28;45486;-81
2023/01/05 01:21:40;;;;;;;;;2.00;2.00;;;;;11.86;67.50;101898.53;5048126;28;45473;-81
2023/01/05 01:24:07;;;;;;;;;3.00;2.00;;;;;11.84;67.71;101889.72;5048318;28;45580;-72
2023/01/05 01:26:33;;;;;;;;;3.75;3.00;;;;;11.88;68.08;101889.03;5052485;28;45492;-80
2023/01/05 01:28:58;;;;;;;;;4.00;4.00;;;;;11.86;68.16;101885.44;5054727;28;45438;-67
2023/01/05 01:31:24;;;;;;;;;3.00;3.00;;;;;11.79;68.00;101873.78;5052962;28;45496;-74
2023/01/05 01:33:49;;;;;;;;;2.25;2.25;;;;;11.88;67.84;101881.19;5050890;28;45684;-80
2023/01/05 01:36:15;;;;;;;;;2.00;2.00;;;;;11.88;68.00;101886.41;5047442;28;46031;-80
2023/01/05 01:38:41;;;;;;;;;2.00;2.00;;;;;11.88;68.21;101881.19;5043254;28;45465;-80
2023/01/05 01:41:06;;;;;;;;;1.00;1.00;;;;;11.84;68.18;101879.25;5039754;28;45411;-78
2023/01/05 01:43:49;;;;;;;;;2.00;2.00;;;;;11.90;68.41;101880.44;5042098;28;46253;-73
2023/01/05 01:46:16;;;;;;;;;2.75;2.00;;;;;11.91;68.16;101881.34;5040524;28;45396;-80
2023/01/05 01:49:04;;;;;;;;;4.00;4.00;;;;;11.94;67.80;101873.63;5041158;28;45488;-80
2023/01/05 01:51:43;;;;;;;;;2.75;2.00;;;;;11.90;68.31;101874.31;5040932;28;45439;-69
2023/01/05 01:54:14;;;;;;;;;1.00;1.00;;;;;11.90;68.58;101884.81;5045833;28;48025;-79
2023/01/05 01:56:45;;;;;;;;;2.25;1.50;;;;;11.92;68.17;101875.28;5041993;28;45502;-67
2023/01/05 01:59:12;;;;;;;;;2.00;1.50;;;;;11.93;68.39;101879.69;5037876;28;45458;-73
2023/01/05 02:01:38;;;;;;;;;2.00;1.50;;;;;11.92;68.44;101878.78;5042651;28;45367;-69
2023/01/05 02:04:05;;;;;;;;;2.00;2.00;;;;;11.89;68.93;101885.59;5044695;28;45489;-73
2023/01/05 02:06:31;;;;;;;;;2.75;2.00;;;;;11.77;68.34;101853.59;5042337;28;45561;-71
2023/01/05 02:08:57;;;;;;;;;2.00;2.00;;;;;11.90;68.47;101877.84;5041550;28;45363;-80
2023/01/05 02:11:43;;;;;;;;;1.00;1.00;;;;;11.63;68.15;101827.66;5041648;28;45610;-81
2023/01/05 02:14:39;;;;;;;;;2.00;2.00;;;;;11.92;68.23;101873.56;5039344;28;46279;-73
2023/01/05 02:17:32;;;;;;;;;1.00;1.00;;;;;11.94;68.02;101868.41;5040074;28;45380;-80
2023/01/05 02:20:00;;;;;;;;;2.00;1.00;;;;;11.97;67.61;101872.88;5044109;28;45482;-68
2023/01/05 02:22:44;;;;;;;;;1.00;1.00;;;;;11.97;67.83;101879.00;5044887;28;45835;-76
2023/01/05 02:25:48;;;;;;;;;1.00;1.00;;;;;11.97;67.90;101862.41;5036528;28;46200;-72
2023/01/05 02:28:56;;;;;;;;;0.50;0.50;;;;;11.97;67.92;101858.03;5038282;28;45531;-72
2023/01/05 02:31:29;;;;;;;;;0.25;0.25;;;;;11.98;68.21;101861.56;5032899;28;46792;-68
2023/01/05 02:34:06;;;;;;;;;1.00;1.00;;;;;11.99;67.94;101859.00;5038344;28;45477;-80
2023/01/05 02:36:31;;;;;;;;;1.00;1.00;;;;;12.01;68.00;101856.47;5038259;28;45501;-80
2023/01/05 02:39:00;;;;;;;;;1.00;1.00;;;;;12.03;67.75;101853.09;5042146;28;45481;-70
2023/01/05 02:41:33;;;;;;;;;4.25;4.00;;;;;12.05;68.07;101851.44;5042586;28;45638;-81
2023/01/05 02:44:01;;;;;;;;;3.00;2.50;;;;;12.06;68.11;101844.50;5043160;28;45688;-71
2023/01/05 02:46:26;;;;;;;;;1.00;1.00;;;;;12.05;68.44;101848.81;5038447;28;45704;-68
2023/01/05 02:48:57;;;;;;;;;1.50;1.00;;;;;11.98;68.28;101836.28;5043213;28;45363;-77
2023/01/05 02:51:29;;;;;;;;;0.75;0.25;;;;;12.07;68.70;101846.25;5047281;28;45471;-77
2023/01/05 02:54:02;;;;;;;;;1.50;1.00;;;;;12.07;68.31;101838.41;5045128;28;45309;-74
2023/01/05 02:56:40;;;;;;;;;4.75;4.00;;;;;12.09;68.29;101844.59;5040968;28;46060;-77
2023/01/05 02:59:32;;;;;;;;;5.00;5.00;;;;;12.10;68.32;101838.56;5042098;28;45324;-77
2023/01/05 03:02:07;;;;;;;;;1.50;1.00;;;;;12.09;68.60;101844.59;5040186;28;45479;-76
2023/01/05 03:04:40;;;;;;;;;1.00;1.00;;;;;11.86;68.67;101809.53;5044316;28;45478;-69
2023/01/05 03:07:11;;;;;;;;;1.75;1.00;;;;;12.03;68.76;101842.59;5043048;28;46187;-79
2023/01/05 03:09:38;;;;;;;;;2.00;1.25;;;;;12.03;68.59;101834.75;5042305;28;45462;-77
2023/01/05 03:15:17;;;;;;;;;2.75;2.75;;;;;11.97;68.97;101831.84;5041428;28;45363;-70
2023/01/05 03:17:47;;;;;;;;;9.75;9.75;;;;;11.95;69.01;101823.03;5039449;28;46083;-76
2023/01/05 03:20:17;;;;;;;;;2.25;2.25;;;;;12.01;68.88;101833.78;5041846;28;45487;-81
2023/01/05 03:36:57;;;;;;;;;2.00;1.00;;;;;12.03;68.71;101799.81;5043216;28;45621;-75
2023/01/05 03:39:27;;;;;;;;;0.00;0.00;;;;;12.03;68.62;101808.56;5043294;28;45474;-79
2023/01/05 03:41:53;;;;;;;;;2.50;0.00;;;;;12.02;69.16;101798.94;5039901;28;45411;-79
2023/01/05 03:44:19;;;;;;;;;1.00;1.00;;;;;12.04;68.88;101799.00;5046895;28;45661;-77
2023/01/05 03:46:45;;;;;;;;;1.00;0.00;;;;;12.05;69.03;101795.53;5044478;28;45402;-80
2023/01/05 03:49:11;;;;;;;;;2.00;0.00;;;;;12.00;68.78;101786.59;5046807;28;45711;-66
2023/01/05 03:51:36;;;;;;;;;1.33;1.00;;;;;12.04;69.14;101794.66;5042840;28;45670;-66
2023/01/05 03:54:02;;;;;;;;;1.33;1.00;;;;;12.03;68.83;101787.59;5046422;28;45464;-79
2023/01/05 03:56:27;;;;;;;;;1.00;1.00;;;;;12.04;69.01;101792.03;5040480;28;45494;-70
2023/01/05 03:58:53;;;;;;;;;1.00;1.00;;;;;12.05;69.12;101791.19;5045468;28;45448;-78
2023/01/05 04:01:18;;;;;;;;;0.00;0.00;;;;;12.04;69.34;101789.41;5042549;28;45396;-79
2023/01/05 04:03:44;;;;;;;;;2.00;0.00;;;;;12.00;69.17;101782.25;5042934;28;46456;-79
2023/01/05 04:06:10;;;;;;;;;1.00;0.00;;;;;12.00;69.37;101777.00;5049241;28;45612;-67
2023/01/05 04:08:35;;;;;;;;;0.00;0.00;;;;;11.97;69.54;101782.09;5043333;28;45534;-75
2023/01/05 04:11:16;;;;;;;;;1.00;0.00;;;;;11.98;69.52;101776.06;5040663;28;45433;-73
2023/01/05 04:13:42;;;;;;;;;0.33;0.00;;;;;12.00;69.36;101777.00;5042799;28;45437;-71
2023/01/05 04:16:08;;;;;;;;;0.25;0.25;;;;;12.02;69.27;101767.50;5039996;28;45562;-76
2023/01/05 04:18:33;;;;;;;;;0.00;0.00;;;;;11.84;69.42;101733.50;5037111;28;45473;-71
2023/01/05 04:20:59;;;;;;;;;1.00;1.00;;;;;12.04;69.24;101776.31;5041650;28;45509;-77
2023/01/05 04:23:24;;;;;;;;;1.00;0.00;;;;;11.27;68.99;101638.50;5041916;28;45461;-76
2023/01/05 04:25:50;;;;;;;;;1.00;1.00;;;;;12.04;69.52;101767.56;5039808;28;45575;-71
2023/01/05 04:28:16;;;;;;;;;1.00;1.00;;;;;12.04;69.37;101764.94;5040093;28;45931;-67
2023/01/05 04:30:48;;;;;;;;;0.00;0.00;;;;;12.06;69.10;101765.91;5045676;28;45546;-68
2023/01/05 04:33:13;;;;;;;;;0.75;0.50;;;;;12.04;69.80;101764.94;5042624;28;45608;-71
2023/01/05 04:35:39;;;;;;;;;1.75;1.00;;;;;12.03;69.68;101763.16;5042076;28;45348;-68
2023/01/05 04:38:04;;;;;;;;;6.00;6.00;;;;;12.03;69.54;101761.41;5040313;28;45433;-80
2023/01/05 04:40:30;;;;;;;;;4.00;4.00;;;;;12.04;69.60;101752.75;5042304;28;45743;-72
2023/01/05 04:42:55;;;;;;;;;7.75;7.50;;;;;12.03;69.19;101750.03;5041669;28;45479;-77
2023/01/05 04:45:21;;;;;;;;;7.50;6.50;;;;;12.07;69.19;101751.97;5049095;28;45429;-73
2023/01/05 04:47:47;;;;;;;;;5.00;4.00;;;;;11.97;70.49;101755.91;5056002;28;45459;-74
2023/01/05 04:50:12;;;;;;;;;3.25;2.25;;;;;11.88;70.20;101752.88;5056106;28;45610;-73
2023/01/05 04:52:38;;;;;;;;;2.00;2.00;;;;;11.49;70.01;101677.00;5056456;28;45634;-72
2023/01/05 04:55:05;;;;;;;;;1.75;1.75;;;;;11.93;69.96;101749.63;5054391;28;45375;-80
2023/01/05 04:57:31;;;;;;;;;2.00;1.00;;;;;11.47;69.99;101678.63;5057193;28;45493;-77
2023/01/05 04:59:56;;;;;;;;;1.00;1.00;;;;;11.92;70.02;101744.34;5055566;28;46188;-71
2023/01/05 05:02:22;;;;;;;;;0.00;0.00;;;;;11.90;70.27;101744.28;5055535;28;45601;-81
2023/01/05 05:04:47;;;;;;;;;2.00;1.00;;;;;11.86;70.15;101742.31;5056666;28;45612;-74
2023/01/05 05:07:13;;;;;;;;;1.00;0.67;;;;;11.87;70.11;101735.38;5057076;28;45960;-80
2023/01/05 05:09:38;;;;;;;;;1.75;1.00;;;;;11.89;70.00;101746.84;5057528;28;45405;-75
2023/01/05 05:12:04;;;;;;;;;1.67;1.00;;;;;11.90;69.56;101738.16;5057304;28;45382;-72
2023/01/05 05:14:29;;;;;;;;;1.00;1.00;;;;;11.88;69.94;101748.53;5056951;28;45501;-70
2023/01/05 05:16:55;;;;;;;;;2.00;1.00;;;;;11.88;69.98;101752.88;5057857;28;46027;-79
2023/01/05 05:19:20;;;;;;;;;2.00;1.00;;;;;11.88;70.22;101745.03;5057330;28;45467;-81
2023/01/05 05:21:46;;;;;;;;;1.00;1.00;;;;;11.87;70.14;101743.22;5056455;28;45494;-68
2023/01/05 05:24:11;;;;;;;;;1.00;1.00;;;;;11.87;69.96;101746.72;5057578;28;45369;-79
2023/01/05 05:26:37;;;;;;;;;2.00;1.00;;;;;11.88;70.01;101735.44;5056448;28;46055;-77
2023/01/05 05:29:02;;;;;;;;;1.00;0.75;;;;;11.90;69.92;101743.41;5056944;28;46049;-79
2023/01/05 05:31:28;;;;;;;;;1.25;1.00;;;;;11.91;70.12;101737.31;5057542;28;45503;-72
2023/01/05 05:33:53;;;;;;;;;1.00;1.00;;;;;11.90;70.21;101739.06;5056637;28;45292;-73
2023/01/05 05:36:19;;;;;;;;;1.00;0.00;;;;;11.74;70.26;101706.03;5056482;28;45344;-81
2023/01/05 05:38:44;;;;;;;;;1.00;1.00;;;;;11.90;70.51;101740.78;5056846;28;45465;-79
2023/01/05 05:41:10;;;;;;;;;2.50;1.00;;;;;11.81;70.26;101725.50;5057089;28;45400;-80
2023/01/05 05:43:35;;;;;;;;;0.00;0.00;;;;;11.88;70.35;101743.28;5042661;28;45320;-81
2023/01/05 05:46:01;;;;;;;;;1.00;1.00;;;;;11.89;70.14;101737.25;5070452;28;46202;-78
2023/01/05 05:48:26;;;;;;;;;0.25;0.25;;;;;11.89;70.35;101736.34;5055701;28;47234;-71
2023/01/05 05:50:52;;;;;;;;;0.50;0.00;;;;;11.87;70.21;101738.88;5061524;28;45434;-75
2023/01/05 05:53:19;;;;;;;;;1.00;1.00;;;;;11.88;70.43;101734.56;5066599;28;45465;-81
2023/01/05 05:55:49;;;;;;;;;2.25;1.50;;;;;11.89;70.30;101732.00;5055049;28;45948;-67
2023/01/05 05:58:15;;;;;;;;;1.00;1.00;;;;;11.91;69.92;101729.47;5055602;28;45490;-68
2023/01/05 06:00:41;;;;;;;;;1.00;1.00;;;;;11.93;69.89;101733.94;5056065;28;45541;-79
2023/01/05 06:03:06;;;;;;;;;0.00;0.00;;;;;11.92;69.90;101728.66;5056485;28;45443;-71
2023/01/05 06:05:32;;;;;;;;;0.75;0.00;;;;;11.93;69.84;101730.41;5055548;28;45991;-68
2023/01/05 06:07:57;;;;;;;;;1.00;1.00;;;;;11.92;69.67;101733.88;5055685;28;45411;-80
2023/01/05 06:10:23;;;;;;;;;1.00;0.00;;;;;11.91;69.54;101725.09;5053068;28;45394;-80
2023/01/05 06:12:49;;;;;;;;;0.00;0.00;;;;;11.93;69.75;101727.81;5042963;28;45585;-80
2023/01/05 06:15:14;;;;;;;;;1.67;1.00;;;;;11.89;69.87;101729.38;5063143;28;46082;-80
2023/01/05 06:17:40;;;;;;;;;0.00;0.00;;;;;11.95;69.97;101734.00;5062230;28;45367;-79
2023/01/05 06:20:08;;;;;;;;;4.25;4.00;;;;;11.85;70.36;101710.84;5063048;28;45345;-80
2023/01/05 06:22:33;;;;;;;;;4.00;4.00;;;;;11.97;69.81;101734.06;5044893;28;45500;-72
2023/01/05 06:24:59;;;;;;;;;2.50;2.00;;;;;11.96;70.07;101735.81;5062131;28;45367;-81
2023/01/05 06:27:24;;;;;;;;;2.00;1.00;;;;;11.98;69.79;101738.47;5062446;28;45545;-79
2023/01/05 06:29:50;;;;;;;;;1.00;1.00;;;;;11.98;69.86;101744.63;5063007;28;45268;-68
2023/01/05 06:32:15;;;;;;;;;3.00;3.00;;;;;11.97;70.13;101739.31;5063345;28;45173;-70
2023/01/05 06:34:41;;;;;;;;;1.00;1.00;;;;;11.98;70.03;101739.38;5051236;28;45393;-68
2023/01/05 06:37:06;;;;;;;;;0.67;0.67;;;;;11.98;69.97;101739.38;5058514;28;46182;-79
2023/01/05 06:39:32;;;;;;;;;3.50;3.50;;;;;11.88;69.79;101721.47;5062258;28;45509;-81
2023/01/05 06:41:57;;;;;;;;;5.75;5.00;;;;;11.99;70.29;101740.28;5062826;28;45343;-81
2023/01/05 06:44:23;;;;;;;;;5.75;3.75;;;;;11.72;70.01;101691.09;5061942;28;45454;-78
2023/01/05 06:46:48;;;;;;;;;50.50;40.00;;;;;12.00;69.99;101739.47;5062753;28;45399;-80
2023/01/05 06:49:14;;;;;;;;;8.00;7.50;;;;;12.00;69.91;101739.47;5061932;28;45370;-81
2023/01/05 06:51:39;;;;;;;;;10.00;6.50;;;;;11.98;70.18;101738.47;5062521;28;45337;-81
2023/01/05 06:54:06;;;;;;;;;10.75;7.00;;;;;11.99;70.06;101745.50;5061424;28;46123;-69
2023/01/05 06:56:31;;;;;;;;;9.00;6.25;;;;;11.96;70.37;101737.50;5062130;28;47157;-78
2023/01/05 06:58:57;;;;;;;;;6.75;6.00;;;;;11.97;69.87;101740.19;5062188;28;45528;-74
2023/01/05 07:01:22;;;;;;;;;2.00;1.00;;;;;11.99;70.13;101735.03;5062682;28;45446;-76
2023/01/05 07:03:48;;;;;;;;;4.75;4.75;;;;;11.98;69.82;101736.78;5061865;28;46176;-68
2023/01/05 07:06:14;;;;;;;;;5.50;5.50;;;;;11.97;70.03;101736.69;5062107;28;45462;-82
2023/01/05 07:08:40;;;;;;;;;5.50;4.25;;;;;11.98;69.79;101730.59;5062337;28;45427;-80
2023/01/05 07:11:05;;;;;;;;;2.33;2.33;;;;;12.00;69.66;101734.22;5062472;28;45441;-80
2023/01/05 07:13:31;;;;;;;;;3.50;3.00;;;;;11.97;69.84;101727.09;5062047;28;45410;-80
2023/01/05 07:15:56;;;;;;;;;31.50;29.75;;;;;12.01;70.00;101741.22;5062039;28;45659;-78
2023/01/05 07:18:22;;;;;;;;;16.50;14.75;;;;;11.99;70.08;101733.31;5062169;28;45430;-80
2023/01/05 07:20:47;;;;;;;;;17.50;17.00;;;;;11.82;70.39;101710.72;5063040;28;45505;-76
2023/01/05 07:23:13;;;;;;;;;16.75;15.00;;;;;11.97;70.12;101744.56;5060213;28;45359;-81
2023/01/05 07:25:38;;;;;;;;;16.75;16.75;;;;;11.94;70.80;101735.72;5057412;28;45423;-70
2023/01/05 07:28:04;;;;;;;;;22.75;21.25;;;;;11.92;70.33;101733.88;5058330;28;45958;-73
2023/01/05 07:30:29;;;;;;;;;24.25;22.50;;;;;11.92;70.82;101740.00;5058079;28;45405;-67
2023/01/05 07:32:59;;;;;;;;;18.00;14.00;;;;;11.65;70.85;101689.91;5058312;28;45743;-71
2023/01/05 07:35:24;;;;;;;;;13.25;12.00;;;;;11.79;70.45;101714.06;5058020;28;45470;-80
2023/01/05 07:37:50;;;;;;;;;28.75;25.25;;;;;11.92;70.32;101729.53;5058525;28;45284;-68
2023/01/05 07:40:15;;;;;;;;;16.25;15.00;;;;;11.92;70.46;101729.53;5058703;28;45292;-72
2023/01/05 07:42:41;;;;;;;;;25.25;22.75;;;;;11.95;70.42;101728.75;5058114;28;45615;-80
2023/01/05 07:45:07;;;;;;;;;31.00;29.50;;;;;11.93;71.08;101727.81;5055507;28;45825;-73
2023/01/05 07:47:33;;;;;;;;;38.50;32.75;;;;;11.90;71.14;101722.44;5057102;28;45442;-67
2023/01/05 07:50:00;;;;;;;;;39.00;33.25;;;;;11.95;70.89;101726.16;5056216;28;45360;-79
2023/01/05 07:52:28;;;;;;;;;26.50;25.25;;;;;11.94;70.97;101720.03;5057311;28;45415;-68
2023/01/05 07:54:54;;;;;;;;;34.75;30.50;;;;;11.91;70.52;101706.78;5055083;28;45524;-80
2023/01/05 07:57:19;;;;;;;;;41.75;36.25;;;;;11.98;70.38;101720.13;5053485;28;45519;-69
2023/01/05 07:59:45;;;;;;;;;35.75;33.00;;;;;11.99;70.33;101712.34;5057444;28;45442;-80
2023/01/05 08:02:11;;;;;;;;;22.00;20.00;;;;;12.03;70.52;101710.75;5057609;28;46333;-79
2023/01/05 08:04:36;;;;;;;;;19.00;17.75;;;;;12.04;70.19;101716.06;5056138;28;45256;-78
2023/01/05 08:07:02;;;;;;;;;29.00;26.00;;;;;12.07;70.37;101716.19;5057365;28;45609;-80
2023/01/05 08:12:11;;;;;;;;;25.25;24.00;;;;;12.12;70.30;101717.28;5055238;28;45722;-76
2023/01/05 08:14:37;;;;;;;;;25.75;21.25;;;;;12.14;70.42;101715.63;5054152;28;46120;-68
2023/01/05 08:17:02;;;;;;;;;44.00;35.00;;;;;12.17;70.54;101712.25;5053948;28;45430;-67
2023/01/05 08:19:28;;;;;;;;;29.00;24.75;;;;;12.13;70.68;101711.19;5057164;28;45426;-71
2023/01/05 08:21:53;;;;;;;;;34.25;27.00;;;;;12.20;70.29;101716.72;5056976;28;45436;-78
2023/01/05 08:24:19;;;;;;;;;19.00;15.50;;;;;12.21;70.51;101711.53;5056494;28;45399;-72
2023/01/05 08:26:44;;;;;;;;;44.50;38.25;;;;;12.27;70.36;101713.53;5056979;28;45530;-71
2023/01/05 08:29:10;;;;;;;;;61.50;50.25;;;;;12.32;70.21;101706.75;5056854;28;45664;-77
2023/01/05 08:31:38;;;;;;;;;31.00;27.75;;;;;12.36;70.09;101708.66;5056341;28;45482;-79
2023/01/05 08:34:04;;;;;;;;;26.00;23.00;;;;;12.14;69.64;101651.88;5055938;28;45424;-79
2023/01/05 08:36:30;;;;;;;;;41.00;35.50;;;;;12.51;69.60;101706.69;5055816;28;45452;-74
2023/01/05 08:38:56;;;;;;;;;51.25;42.25;;;;;12.57;69.46;101706.00;5056694;28;45470;-79
2023/01/05 08:41:31;;;;;;;;;38.75;34.75;;;;;12.45;69.18;101672.34;5056343;28;45392;-80
2023/01/05 08:43:59;;;;;;;;;30.50;27.50;;;;;12.73;68.91;101699.66;5055872;28;45694;-75
2023/01/05 08:46:27;;;;;;;;;52.50;41.75;;;;;12.72;69.07;101685.66;5056414;28;45546;-76
2023/01/05 08:48:56;;;;;;;;;53.50;40.75;;;;;12.87;68.86;101705.44;5056753;28;45428;-74
2023/01/05 08:51:22;;;;;;;;;22.25;16.50;;;;;12.91;69.18;101716.13;5057095;28;45503;-79
2023/01/05 08:53:49;;;;;;;;;16.00;14.00;;;;;12.88;69.41;101709.88;5055152;28;45419;-73
2023/01/05 08:56:15;;;;;;;;;17.25;15.50;;;;;12.91;69.27;101713.50;5056346;28;45311;-76
2023/01/05 08:58:41;;;;;;;;;21.75;19.25;;;;;12.99;69.08;101708.56;5056434;28;45355;-69
2023/01/05 09:01:15;;;;;;;;;21.00;16.00;;;;;13.02;68.74;101713.03;5055981;28;45553;-69
2023/01/05 09:03:41;;;;;;;;;15.25;14.00;;;;;12.91;68.52;101682.03;5056152;28;45395;-81
2023/01/05 09:06:10;;;;;;;;;17.25;16.50;;;;;13.11;68.65;101708.13;5056422;28;45552;-79
2023/01/05 09:08:40;;;;;;;;;13.00;12.75;;;;;13.21;67.66;101707.66;5057145;28;45540;-76
2023/01/05 09:11:12;;;;;;;;;14.25;13.75;;;;;13.35;67.22;101707.28;5055980;28;45395;-77
2023/01/05 09:13:38;;;;;;;;;19.75;18.50;;;;;13.50;66.68;101700.00;5056601;28;45504;-76
2023/01/05 09:16:10;;;;;;;;;16.50;15.75;;;;;13.71;66.89;101702.50;5056753;28;45503;-70
2023/01/05 09:18:38;;;;;;;;;16.75;16.25;;;;;13.91;66.17;101698.84;5056895;28;45495;-76
2023/01/05 09:21:05;;;;;;;;;13.00;12.50;;;;;14.10;65.33;101702.97;5056268;28;45536;-78
2023/01/05 09:23:31;;;;;;;;;24.00;19.75;;;;;14.31;64.83;101699.31;5056335;28;45434;-82
2023/01/05 09:25:57;;;;;;;;;23.25;19.75;;;;;14.42;64.36;101681.25;5056648;28;45785;-78
2023/01/05 09:28:23;;;;;;;;;38.50;31.00;;;;;14.72;63.88;101697.13;5057296;28;45501;-78
2023/01/05 09:30:48;;;;;;;;;32.00;28.00;;;;;14.98;62.25;101694.41;5055536;28;45556;-70
2023/01/05 09:33:14;;;;;;;;;34.00;28.00;;;;;15.23;61.47;101691.66;5056461;28;45597;-69
2023/01/05 09:35:39;;;;;;;;;26.00;23.00;;;;;15.49;61.16;101687.16;5056671;28;45316;-68
2023/01/05 09:38:05;;;;;;;;;24.50;24.50;;;;;15.71;60.98;101679.84;5056584;28;45470;-69
2023/01/05 09:40:39;;;;;;;;;33.75;28.00;;;;;15.91;60.50;101685.66;5055797;28;45581;-68
2023/01/05 09:43:05;;;;;;;;;32.00;29.75;;;;;16.09;59.70;101686.16;5056049;28;45185;-68
2023/01/05 09:45:30;;;;;;;;;29.00;27.50;;;;;16.17;59.24;101654.69;5055740;28;45236;-68
2023/01/05 09:47:59;;;;;;;;;19.25;16.25;;;;;16.52;57.91;101690.72;5053764;28;45382;-74
2023/01/05 09:50:29;;;;;;;;;18.00;16.75;;;;;16.62;57.73;101682.16;5055968;28;46099;-77
2023/01/05 09:52:58;;;;;;;;;27.25;24.00;;;;;16.78;57.00;101688.69;5053810;28;45441;-70
2023/01/05 09:55:28;;;;;;;;;16.25;16.00;;;;;16.88;55.64;101686.31;5055619;28;45462;-76
2023/01/05 09:57:58;;;;;;;;;13.00;12.50;;;;;16.93;56.52;101683.78;5053596;28;45470;-70
2023/01/05 10:00:25;;;;;;;;;10.75;10.00;;;;;17.14;55.46;101687.75;5044955;28;45732;-72
2023/01/05 10:02:51;;;;;;;;;11.00;9.25;;;;;17.37;56.02;101690.84;5053002;28;45561;-73
2023/01/05 10:05:17;;;;;;;;;14.25;13.00;;;;;17.53;55.45;101678.81;5054846;28;45466;-72
2023/01/05 10:07:55;;;;;;;;;8.67;8.00;;;;;17.73;55.50;101680.13;5055780;28;45538;-71
2023/01/05 10:10:35;;;;;;;;;4.67;3.67;;;;;17.81;55.28;101682.91;5054749;28;46007;-74
2023/01/05 10:13:07;;;;;;;;;14.00;11.00;;;;;18.00;54.83;101689.44;5056328;28;45347;-74
2023/01/05 10:15:41;;;;;;;;;6.00;6.00;;;;;18.12;53.28;101688.75;5056386;28;45469;-72
2023/01/05 10:18:33;;;;;;;;;3.67;3.33;;;;;18.25;52.99;101685.47;5057151;28;45465;-72
2023/01/05 10:21:17;;;;;;;;;10.67;10.67;;;;;18.37;53.14;101683.03;5052884;28;46056;-71
2023/01/05 10:24:15;;;;;;;;;5.00;5.00;;;;;18.35;52.70;101682.09;5056216;28;45214;-72
2023/01/05 10:27:07;;;;;;;;;2.33;2.33;;;;;18.55;51.88;101685.06;5056990;28;45528;-73
2023/01/05 10:29:43;;;;;;;;;4.33;2.67;;;;;18.67;51.34;101682.59;5057206;28;45387;-72
2023/01/05 10:32:25;;;;;;;;;2.67;2.67;;;;;18.67;51.51;101679.94;5058704;28;45470;-81
2023/01/05 10:35:21;;;;;;;;;11.33;9.33;;;;;18.73;51.17;101672.97;5056578;28;45415;-78
2023/01/05 10:38:22;;;;;;;;;4.33;3.33;;;;;18.83;51.47;101677.56;5056843;28;45470;-82
2023/01/05 10:41:12;;;;;;;;;2.33;1.67;;;;;18.99;50.55;101679.53;5024080;28;45387;-72
2023/01/05 10:44:11;;;;;;;;;2.00;2.00;;;;;19.08;50.12;101671.72;5035689;28;45538;-81
2023/01/05 10:46:45;;;;;;;;;5.00;4.00;;;;;19.20;49.32;101664.78;5045660;28;45316;-71
2023/01/05 10:49:17;;;;;;;;;7.00;7.00;;;;;19.25;49.60;101653.38;5056483;28;45248;-72
2023/01/05 10:51:44;;;;;;;;;6.67;6.00;;;;;19.16;49.08;101631.19;5056721;28;45284;-72
2023/01/05 10:54:40;;;;;;;;;5.00;4.00;;;;;19.44;49.63;101656.25;5056282;28;45367;-75
2023/01/05 10:57:27;;;;;;;;;2.67;2.67;;;;;19.59;49.20;101652.88;5037448;28;45475;-74
2023/01/05 10:59:56;;;;;;;;;4.67;4.00;;;;;19.68;48.63;101639.72;5054730;28;45644;-77
2023/01/05 11:02:24;;;;;;;;;6.33;5.67;;;;;19.71;48.41;101628.25;5058775;28;45501;-73
2023/01/05 11:04:50;;;;;;;;;5.00;5.00;;;;;19.80;46.92;101637.22;5058109;28;45322;-74
2023/01/05 11:07:16;;;;;;;;;3.00;2.00;;;;;19.82;45.92;101634.59;5058476;28;45816;-71
2023/01/05 11:09:46;;;;;;;;;1.67;1.67;;;;;19.90;45.70;101627.59;5058126;28;45377;-80
2023/01/05 11:12:18;;;;;;;;;1.33;1.33;;;;;19.93;44.81;101627.59;5058986;28;45477;-78
2023/01/05 11:14:50;;;;;;;;;2.00;1.33;;;;;19.95;44.87;101619.66;5058717;28;45523;-71
2023/01/05 11:17:20;;;;;;;;;2.00;2.00;;;;;19.86;44.84;101615.19;5058100;28;45852;-71
2023/01/05 11:19:55;;;;;;;;;2.00;2.00;;;;;19.61;42.97;101593.69;5058460;28;45550;-68
2023/01/05 11:22:38;;;;;;;;;4.00;3.00;;;;;19.71;44.09;101612.34;5056914;28;45397;-71
2023/01/05 11:25:22;;;;;;;;;2.00;2.00;;;;;19.67;45.02;101603.47;5056616;28;46127;-75
2023/01/05 11:28:17;;;;;;;;;1.33;1.33;;;;;19.74;42.97;101605.34;5057588;28;45511;-70
2023/01/05 11:31:04;;;;;;;;;2.00;2.00;;;;;19.51;43.42;101601.56;5056705;28;45490;-71
2023/01/05 11:33:33;;;;;;;;;3.00;2.33;;;;;19.51;44.43;101598.91;5056044;28;45485;-71
2023/01/05 11:36:01;;;;;;;;;0.00;0.00;;;;;19.14;41.45;101591.47;5053969;28;45431;-71
2023/01/05 11:38:29;;;;;;;;;0.00;0.00;;;;;18.87;42.93;101587.59;5056649;28;45333;-73
2023/01/05 11:40:57;;;;;;;;;0.00;0.00;;;;;18.84;42.55;101582.28;5058325;28;45510;-71
2023/01/05 11:43:27;;;;;;;;;0.00;0.00;;;;;18.82;42.61;101578.72;5059217;28;46053;-73
2023/01/05 11:45:56;;;;;;;;;0.00;0.00;;;;;18.55;41.76;101562.47;5058108;28;46074;-74
2023/01/05 11:48:32;;;;;;;;;2.00;0.00;;;;;18.44;43.18;101587.00;5057551;28;45812;-81
2023/01/05 11:50:58;;;;;;;;;0.00;0.00;;;;;18.32;42.62;101576.22;5059204;28;45364;-73
2023/01/05 11:53:32;;;;;;;;;1.67;1.00;;;;;18.30;42.45;101572.69;5058751;28;45497;-70
2023/01/05 11:56:21;;;;;;;;;0.00;0.00;;;;;18.22;42.74;101567.31;5058528;28;46174;-73
2023/01/05 11:58:49;;;;;;;;;2.33;2.00;;;;;18.27;41.53;101562.94;5049587;28;45458;-73
2023/01/05 12:01:34;;;;;;;;;0.33;0.33;;;;;18.36;42.46;101554.25;5059028;28;45712;-74
2023/01/05 12:04:05;;;;;;;;;0.00;0.00;;;;;18.42;42.28;101550.81;5058358;28;45430;-73